Time;durP1;ratioP1;P1;durP2;ratioP2;P2;SDS_P1;SDS_P2;PMS_P1;PMS_P2;Temp;Humidity;BMP_temperature;BMP_pressure;BME280_temperature;BME280_humidity;BME280_pressure;Samples;Min_cycle;Max_cycle;Signal;HPM_P1;HPM_P2
2021/06/29 00:00:29;;;;;;;8.40;7.70;;;;;;;21.30;57.28;100530.19;3588466;40;20442;-48
2021/06/29 00:03:01;;;;;;;9.90;8.13;;;;;;;21.46;56.39;100525.56;3587880;40;20323;-46
2021/06/29 00:05:33;;;;;;;8.85;8.05;;;;;;;21.34;56.46;100521.47;3584691;40;20069;-48
2021/06/29 00:08:02;;;;;;;9.73;8.73;;;;;;;21.17;57.17;100514.00;3584457;40;20540;-46
2021/06/29 00:10:30;;;;;;;9.85;8.50;;;;;;;21.13;57.80;100506.28;3584701;40;20053;-47
2021/06/29 00:12:58;;;;;;;9.75;8.80;;;;;;;21.10;57.97;100502.81;3584664;40;20100;-46
2021/06/29 00:15:28;;;;;;;9.20;8.40;;;;;;;21.13;58.06;100507.13;3584486;40;20068;-45
2021/06/29 00:17:55;;;;;;;9.55;8.57;;;;;;;21.16;58.23;100509.66;3584632;40;20085;-45
2021/06/29 00:20:22;;;;;;;8.75;7.82;;;;;;;21.00;58.45;100503.91;3584378;40;20100;-47
2021/06/29 00:22:49;;;;;;;9.68;8.60;;;;;;;20.90;58.75;100499.78;3584729;40;20112;-45
2021/06/29 00:25:17;;;;;;;9.13;8.23;;;;;;;21.11;58.38;100498.47;3584508;40;20338;-45
2021/06/29 00:27:45;;;;;;;9.85;8.85;;;;;;;20.88;59.35;100492.88;3584447;40;20067;-45
2021/06/29 00:30:13;;;;;;;9.98;9.00;;;;;;;20.80;59.77;100485.25;3584595;40;20101;-47
2021/06/29 00:32:40;;;;;;;10.00;8.98;;;;;;;20.86;59.62;100490.31;3583084;40;20458;-48
2021/06/29 00:35:09;;;;;;;9.27;8.48;;;;;;;20.72;60.46;100490.59;3584460;40;20344;-46
2021/06/29 00:37:36;;;;;;;10.20;9.13;;;;;;;20.82;60.90;100488.66;3583344;40;20341;-47
2021/06/29 00:40:05;;;;;;;9.82;8.65;;;;;;;20.75;61.14;100490.53;3584490;40;20062;-45
2021/06/29 00:42:32;;;;;;;10.13;9.23;;;;;;;20.68;61.67;100493.28;3584425;40;20049;-48
2021/06/29 00:44:59;;;;;;;10.45;9.43;;;;;;;20.65;61.77;100490.72;3584094;40;20072;-47
2021/06/29 00:47:26;;;;;;;11.55;8.95;;;;;;;20.73;62.61;100491.44;3584335;40;20172;-47
2021/06/29 00:49:53;;;;;;;10.77;8.90;;;;;;;20.74;62.50;100478.38;3584057;40;20485;-47
2021/06/29 00:52:21;;;;;;;9.43;8.57;;;;;;;20.85;62.17;100481.66;3584435;40;20064;-46
2021/06/29 00:54:49;;;;;;;10.00;9.10;;;;;;;20.59;62.32;100478.69;3584255;40;20355;-45
2021/06/29 00:57:17;;;;;;;9.60;8.80;;;;;;;20.51;62.80;100485.78;3584184;40;20088;-51
2021/06/29 00:59:44;;;;;;;9.13;8.32;;;;;;;20.58;61.85;100479.59;3584113;40;20060;-45
2021/06/29 01:02:12;;;;;;;9.18;8.40;;;;;;;20.69;60.86;100472.41;3584281;40;20124;-46
2021/06/29 01:04:42;;;;;;;10.35;9.35;;;;;;;20.67;61.75;100470.75;3584145;40;20161;-48
2021/06/29 01:07:11;;;;;;;9.82;9.02;;;;;;;20.61;61.76;100471.69;3584463;40;20146;-45
2021/06/29 01:09:38;;;;;;;9.57;8.80;;;;;;;20.68;62.06;100470.72;3584147;40;20100;-45
2021/06/29 01:12:07;;;;;;;9.82;9.00;;;;;;;20.69;62.39;100463.75;3584319;40;20080;-46
2021/06/29 01:14:34;;;;;;;9.77;9.00;;;;;;;20.74;61.55;100477.53;3584138;40;20088;-45
2021/06/29 01:17:04;;;;;;;9.93;9.02;;;;;;;20.65;63.15;100462.94;3584113;40;20055;-46
2021/06/29 01:19:47;;;;;;;10.07;9.25;;;;;;;20.69;62.78;100471.56;3584270;40;20121;-48
2021/06/29 01:22:15;;;;;;;10.25;9.38;;;;;;;20.58;63.18;100472.63;3584161;40;20433;-45
2021/06/29 01:24:46;;;;;;;11.88;9.68;;;;;;;20.62;64.61;100472.59;3583776;40;20052;-48
2021/06/29 01:32:27;;;;;;;14.68;10.50;;;;;;;20.39;66.12;100478.19;3584102;40;20410;-45
2021/06/29 01:34:54;;;;;;;10.20;9.15;;;;;;;20.29;65.36;100474.84;3584019;40;20100;-46
2021/06/29 01:37:22;;;;;;;11.18;10.05;;;;;;;20.19;65.39;100475.91;3583873;40;20059;-48
2021/06/29 01:39:52;;;;;;;11.77;9.38;;;;;;;20.12;66.29;100471.72;3584226;40;20040;-45
2021/06/29 01:42:19;;;;;;;10.80;9.43;;;;;;;20.09;66.60;100473.47;3584124;40;20062;-45
2021/06/29 01:44:46;;;;;;;10.10;9.25;;;;;;;20.03;66.34;100470.13;3583989;40;20108;-45
2021/06/29 01:47:23;;;;;;;11.00;9.90;;;;;;;20.01;67.19;100477.97;3583956;40;20092;-45
2021/06/29 01:49:50;;;;;;;12.82;10.60;;;;;;;19.99;67.52;100471.91;3584013;40;20084;-45
2021/06/29 01:52:18;;;;;;;11.55;9.77;;;;;;;19.90;67.00;100472.06;3584171;40;20045;-46
2021/06/29 01:54:45;;;;;;;10.80;9.75;;;;;;;20.04;66.48;100469.25;3584043;40;20330;-47
2021/06/29 01:57:16;;;;;;;10.35;9.35;;;;;;;19.88;67.19;100468.66;3584111;40;20095;-48
2021/06/29 01:59:49;;;;;;;10.75;9.75;;;;;;;19.91;67.49;100473.78;3584222;40;20077;-45
2021/06/29 02:02:16;;;;;;;11.30;10.20;;;;;;;19.88;67.05;100476.44;3584083;40;20081;-45
2021/06/29 02:04:43;;;;;;;11.75;10.55;;;;;;;19.99;66.69;100473.66;3583851;40;20295;-45
2021/06/29 02:07:10;;;;;;;10.48;9.48;;;;;;;19.77;68.08;100475.72;3583986;40;20063;-46
2021/06/29 02:09:37;;;;;;;11.15;10.05;;;;;;;19.71;68.26;100473.25;3584270;40;20314;-45
2021/06/29 02:12:05;;;;;;;12.50;10.45;;;;;;;19.67;69.70;100476.75;3584055;40;20104;-47
2021/06/29 02:14:32;;;;;;;11.13;10.00;;;;;;;19.68;69.87;100468.94;3583899;40;20087;-45
2021/06/29 02:16:59;;;;;;;11.82;10.63;;;;;;;19.57;70.89;100473.41;3584162;40;20432;-46
2021/06/29 02:19:26;;;;;;;11.13;10.15;;;;;;;19.67;70.07;100474.16;3583872;40;20153;-45
2021/06/29 02:21:53;;;;;;;11.07;10.07;;;;;;;19.64;70.13;100472.47;3583121;40;20421;-45
2021/06/29 02:24:20;;;;;;;11.48;10.48;;;;;;;19.73;69.92;100480.09;3583811;40;20093;-48
2021/06/29 02:26:47;;;;;;;11.07;9.93;;;;;;;19.74;69.48;100484.44;3583859;40;20347;-47
2021/06/29 02:29:15;;;;;;;12.38;11.18;;;;;;;19.74;69.53;100481.00;3583542;40;20058;-47
2021/06/29 02:31:41;;;;;;;11.90;10.73;;;;;;;19.81;69.27;100483.47;3583670;40;20346;-46
2021/06/29 02:34:09;;;;;;;11.30;9.98;;;;;;;19.90;69.20;100492.00;3584202;40;20068;-48
2021/06/29 02:36:36;;;;;;;11.50;10.40;;;;;;;20.08;68.51;100492.56;3584005;40;20051;-50
2021/06/29 02:39:04;;;;;;;10.98;9.88;;;;;;;20.28;69.03;100494.81;3583536;40;20048;-49
2021/06/29 02:41:33;;;;;;;11.40;10.35;;;;;;;20.30;67.99;100506.06;3583322;40;20060;-45
2021/06/29 02:44:01;;;;;;;11.70;10.18;;;;;;;20.21;67.74;100498.41;3583609;40;20441;-45
2021/06/29 02:46:28;;;;;;;11.85;10.70;;;;;;;20.26;67.67;100504.38;3583858;40;20070;-45
2021/06/29 02:48:56;;;;;;;11.20;10.13;;;;;;;20.30;68.03;100495.66;3583744;40;20091;-46
2021/06/29 02:51:24;;;;;;;11.73;9.57;;;;;;;20.32;67.62;100496.47;3583410;40;20797;-45
2021/06/29 02:53:51;;;;;;;13.40;10.50;;;;;;;20.39;67.00;100501.59;3583464;40;20402;-46
2021/06/29 02:59:16;;;;;;;12.70;10.80;;;;;;;20.32;68.02;100493.88;3588200;40;20045;-47
2021/06/29 03:01:45;;;;;;;11.80;10.52;;;;;;;20.39;68.01;100499.00;3583419;40;20112;-45
2021/06/29 03:04:16;;;;;;;13.35;10.52;;;;;;;20.55;66.76;100500.44;3583856;40;20056;-45
2021/06/29 03:06:43;;;;;;;12.27;10.63;;;;;;;20.42;67.79;100496.31;3583433;40;20079;-47
2021/06/29 03:09:11;;;;;;;11.68;10.57;;;;;;;20.50;67.08;100491.88;3583270;40;20067;-49
2021/06/29 03:11:38;;;;;;;11.82;10.80;;;;;;;20.37;67.26;100487.75;3583604;40;20107;-47
2021/06/29 03:14:06;;;;;;;11.48;10.30;;;;;;;20.42;67.69;100491.09;3583316;40;20081;-45
2021/06/29 03:16:33;;;;;;;11.75;10.65;;;;;;;20.41;67.11;100489.41;3583361;40;20056;-45
2021/06/29 03:19:00;;;;;;;11.57;10.48;;;;;;;20.40;67.66;100491.16;3583251;40;20401;-45
2021/06/29 03:21:27;;;;;;;12.13;10.93;;;;;;;20.46;67.56;100485.81;3583330;40;20100;-45
2021/06/29 03:23:55;;;;;;;13.77;11.02;;;;;;;20.50;67.74;100492.72;3583410;40;20052;-46
2021/06/29 03:26:22;;;;;;;16.77;11.77;;;;;;;20.38;68.72;100484.25;3581903;40;20067;-47
2021/06/29 03:28:49;;;;;;;13.82;11.10;;;;;;;20.32;68.12;100480.03;3583133;40;20119;-45
2021/06/29 03:31:17;;;;;;;17.13;10.50;;;;;;;20.44;68.67;100474.59;3583143;40;20467;-45
2021/06/29 03:33:44;;;;;;;12.45;11.15;;;;;;;20.40;68.87;100472.09;3584579;40;20056;-45
2021/06/29 03:36:11;;;;;;;14.15;11.98;;;;;;;20.38;70.68;100479.03;3584744;40;20067;-45
2021/06/29 03:38:38;;;;;;;14.15;11.00;;;;;;;20.33;70.44;100473.91;3585240;40;20115;-46
2021/06/29 03:41:06;;;;;;;12.38;11.18;;;;;;;20.32;70.15;100475.66;3585108;40;20055;-49
2021/06/29 03:43:36;;;;;;;13.63;11.40;;;;;;;20.41;70.65;100473.78;3584353;40;20057;-49
2021/06/29 03:46:05;;;;;;;12.75;11.20;;;;;;;20.41;70.41;100469.44;3585094;40;20064;-47
2021/06/29 03:48:33;;;;;;;11.20;10.15;;;;;;;20.42;70.43;100476.34;3584876;40;20314;-48
2021/06/29 03:51:01;;;;;;;12.18;10.98;;;;;;;20.45;70.41;100473.72;3584848;40;20056;-48
2021/06/29 03:53:28;;;;;;;11.68;10.68;;;;;;;20.52;69.88;100472.75;3584912;40;20064;-45
2021/06/29 03:55:56;;;;;;;12.82;11.68;;;;;;;20.76;68.89;100475.78;3584840;40;20410;-48
2021/06/29 03:58:23;;;;;;;13.68;11.02;;;;;;;20.66;68.90;100475.09;3584584;40;20084;-48
2021/06/29 04:00:50;;;;;;;11.05;10.02;;;;;;;20.60;69.28;100473.44;3584731;40;20063;-49
2021/06/29 04:03:17;;;;;;;11.48;10.52;;;;;;;20.58;68.94;100472.63;3584592;40;20118;-48
2021/06/29 04:05:44;;;;;;;14.50;10.43;;;;;;;20.66;68.50;100462.09;3584642;40;20047;-48
2021/06/29 04:08:11;;;;;;;11.88;10.73;;;;;;;20.78;67.79;100455.78;3584719;40;20052;-49
2021/06/29 04:10:38;;;;;;;11.48;10.38;;;;;;;20.72;68.79;100454.16;3585273;40;20088;-48
2021/06/29 04:13:05;;;;;;;12.10;10.95;;;;;;;20.77;68.41;100461.88;3584672;40;20466;-49
2021/06/29 04:15:32;;;;;;;12.55;11.25;;;;;;;20.87;68.39;100457.34;3584887;40;20056;-48
2021/06/29 04:17:59;;;;;;;11.45;10.50;;;;;;;20.88;68.40;100459.03;3584572;40;20051;-47
2021/06/29 04:20:26;;;;;;;12.18;10.65;;;;;;;21.11;67.59;100459.41;3584650;40;20044;-48
2021/06/29 04:22:53;;;;;;;12.05;10.95;;;;;;;20.87;68.68;100452.13;3584504;40;20092;-47
2021/06/29 04:25:20;;;;;;;12.55;11.25;;;;;;;20.90;68.23;100455.53;3584648;40;20052;-48
2021/06/29 04:27:47;;;;;;;11.60;10.63;;;;;;;20.83;69.38;100448.72;3584615;40;20092;-47
2021/06/29 04:30:15;;;;;;;12.32;11.13;;;;;;;20.83;68.42;100451.31;3584677;40;20056;-48
2021/06/29 04:32:42;;;;;;;12.50;11.25;;;;;;;20.85;69.00;100444.34;3584940;40;20104;-47
2021/06/29 04:35:09;;;;;;;12.25;11.15;;;;;;;20.76;69.42;100442.78;3584880;40;20088;-48
2021/06/29 04:37:37;;;;;;;13.07;10.73;;;;;;;20.76;68.97;100436.72;3584757;40;20199;-46
2021/06/29 04:40:04;;;;;;;12.38;11.20;;;;;;;20.71;68.91;100436.81;3584769;40;20372;-46
2021/06/29 04:42:31;;;;;;;12.98;11.65;;;;;;;20.76;69.11;100432.38;3584729;40;20434;-47
2021/06/29 04:44:59;;;;;;;11.77;10.73;;;;;;;20.95;68.35;100438.06;3588754;40;20085;-51
2021/06/29 04:47:25;;;;;;;12.18;10.63;;;;;;;20.92;69.25;100437.25;3589927;40;20053;-52
2021/06/29 04:49:55;;;;;;;13.80;11.02;;;;;;;21.15;68.37;100436.78;3584600;40;20059;-48
2021/06/29 04:52:25;;;;;;;12.55;11.35;;;;;;;21.73;64.42;100445.91;3584609;40;20079;-46
2021/06/29 04:55:01;;;;;;;12.40;11.18;;;;;;;21.97;63.35;100441.81;3584559;40;20064;-49
2021/06/29 04:57:41;;;;;;;11.82;10.60;;;;;;;21.93;63.18;100438.44;3584418;40;20157;-49
2021/06/29 05:00:12;;;;;;;12.57;11.25;;;;;;;21.96;64.02;100443.56;3584725;40;20419;-47
2021/06/29 05:02:40;;;;;;;12.50;11.25;;;;;;;22.08;62.28;100442.38;3584622;40;20044;-48
2021/06/29 05:05:13;;;;;;;12.75;11.45;;;;;;;22.34;61.63;100445.22;3584721;40;20056;-50
2021/06/29 05:07:41;;;;;;;11.43;10.35;;;;;;;22.36;62.18;100440.78;3584520;40;20126;-47
2021/06/29 05:10:10;;;;;;;12.25;11.05;;;;;;;22.28;62.10;100448.00;3584383;40;20102;-48
2021/06/29 05:12:40;;;;;;;13.02;10.85;;;;;;;22.40;61.69;100444.19;3584562;40;20648;-48
2021/06/29 05:15:16;;;;;;;11.32;10.32;;;;;;;22.46;61.92;100443.16;3584645;40;20406;-46
2021/06/29 05:17:43;;;;;;;;;;;;;;;22.73;61.42;100444.16;3585062;40;20044;-47
2021/06/29 05:20:22;;;;;;;12.90;10.95;;;;;;;22.69;61.49;100442.53;3584711;40;19937;-48
2021/06/29 05:22:52;;;;;;;12.48;11.00;;;;;;;22.69;61.44;100445.13;3584562;40;20029;-50
2021/06/29 05:25:31;;;;;;;15.32;11.75;;;;;;;22.92;61.02;100449.72;3584103;40;20048;-49
2021/06/29 05:27:59;;;;;;;16.23;11.13;;;;;;;22.76;61.11;100457.13;3584096;40;20161;-47
2021/06/29 05:30:26;;;;;;;12.93;11.60;;;;;;;22.84;61.46;100449.94;3584151;40;20052;-49
2021/06/29 05:32:54;;;;;;;13.30;12.10;;;;;;;22.85;61.60;100452.50;3584219;40;20036;-50
2021/06/29 05:35:21;;;;;;;15.77;12.52;;;;;;;22.90;62.15;100455.00;3584326;40;20391;-47
2021/06/29 05:37:49;;;;;;;15.50;13.05;;;;;;;23.13;60.60;100446.50;3584220;40;20134;-52
2021/06/29 05:40:16;;;;;;;12.70;11.40;;;;;;;23.16;60.57;100456.84;3584336;40;20738;-51
2021/06/29 05:42:43;;;;;;;13.65;12.23;;;;;;;23.40;60.31;100452.63;3584353;40;20076;-47
2021/06/29 05:45:13;;;;;;;16.08;12.15;;;;;;;23.17;61.45;100450.72;3584532;40;20392;-49
2021/06/29 05:47:52;;;;;;;19.98;12.60;;;;;;;23.25;61.81;100437.41;3584096;40;20036;-50
2021/06/29 05:50:30;;;;;;;20.00;12.07;;;;;;;23.66;60.25;100448.38;3585680;40;20145;-47
2021/06/29 05:52:57;;;;;;;15.50;12.35;;;;;;;23.81;59.64;100445.28;3585913;40;20060;-50
2021/06/29 05:55:25;;;;;;;20.33;12.45;;;;;;;23.66;59.83;100440.53;3585293;40;20134;-49
2021/06/29 05:58:17;;;;;;;16.40;12.23;;;;;;;23.95;60.23;100437.81;3585190;40;20409;-47
2021/06/29 06:01:09;;;;;;;14.00;11.75;;;;;;;23.65;60.21;100439.66;3584702;40;20093;-48
2021/06/29 06:03:36;;;;;;;12.63;11.35;;;;;;;23.59;61.12;100438.06;3584070;40;20142;-48
2021/06/29 06:06:15;;;;;;;13.93;12.27;;;;;;;23.91;59.88;100438.81;3584370;40;20052;-50
2021/06/29 06:08:47;;;;;;;31.45;14.15;;;;;;;24.30;58.38;100440.97;3584024;40;20165;-47
2021/06/29 06:11:15;;;;;;;52.08;16.88;;;;;;;24.47;57.49;100433.41;3584302;40;20089;-48
2021/06/29 06:13:42;;;;;;;13.88;12.45;;;;;;;24.69;57.62;100435.25;3584278;40;20060;-47
2021/06/29 06:16:12;;;;;;;12.88;11.68;;;;;;;24.75;56.79;100433.25;3584351;40;20102;-49
2021/06/29 06:18:42;;;;;;;12.52;11.43;;;;;;;24.98;56.32;100431.53;3584180;40;20056;-46
2021/06/29 06:21:10;;;;;;;12.55;11.48;;;;;;;25.09;56.00;100432.00;3583128;40;20072;-46
2021/06/29 06:23:40;;;;;;;17.63;12.10;;;;;;;24.98;56.97;100427.16;3583914;40;20052;-47
2021/06/29 06:26:07;;;;;;;77.45;19.17;;;;;;;25.24;55.82;100433.19;3584152;40;20093;-49
2021/06/29 06:28:38;;;;;;;12.63;11.38;;;;;;;25.50;55.86;100426.91;3584271;40;20429;-49
2021/06/29 06:31:06;;;;;;;24.70;13.02;;;;;;;25.58;55.11;100430.06;3584101;40;20186;-49
2021/06/29 06:33:33;;;;;;;29.23;13.93;;;;;;;25.71;54.77;100431.28;3584094;40;20059;-48
2021/06/29 06:36:09;;;;;;;16.60;12.32;;;;;;;25.75;55.79;100440.75;3584004;40;20056;-47
2021/06/29 06:38:37;;;;;;;13.10;11.65;;;;;;;26.13;56.10;100431.28;3583960;40;20249;-52
2021/06/29 06:41:05;;;;;;;12.48;11.30;;;;;;;26.41;55.38;100433.56;3584018;40;20048;-51
2021/06/29 06:43:35;;;;;;;13.18;11.90;;;;;;;26.18;52.72;100427.59;3583973;40;20076;-47
2021/06/29 06:46:09;;;;;;;12.55;11.30;;;;;;;26.12;53.19;100426.09;3583980;40;20068;-46
2021/06/29 06:48:42;;;;;;;11.93;10.77;;;;;;;26.61;52.96;100421.34;3583812;40;20130;-52
2021/06/29 06:51:11;;;;;;;13.40;11.60;;;;;;;26.78;51.85;100418.81;3584100;40;20116;-49
2021/06/29 06:53:39;;;;;;;12.27;11.13;;;;;;;26.84;51.26;100422.91;3583877;40;20060;-47
2021/06/29 06:56:14;;;;;;;12.70;11.55;;;;;;;26.95;51.51;100425.91;3583665;40;20052;-47
2021/06/29 06:58:42;;;;;;;13.00;11.55;;;;;;;27.17;51.05;100429.25;3583757;40;20055;-46
2021/06/29 07:01:14;;;;;;;13.02;11.50;;;;;;;27.44;49.72;100430.63;3583719;40;20052;-51
2021/06/29 07:03:43;;;;;;;12.63;10.88;;;;;;;27.94;50.55;100432.56;3584006;40;20057;-49
2021/06/29 07:06:12;;;;;;;12.35;10.85;;;;;;;28.19;48.11;100438.28;3583694;40;20060;-47
2021/06/29 07:08:39;;;;;;;12.32;10.95;;;;;;;28.37;48.24;100442.63;3582930;40;20099;-49
2021/06/29 07:11:07;;;;;;;19.08;11.65;;;;;;;28.49;47.79;100427.97;3583806;40;20064;-46
2021/06/29 07:13:35;;;;;;;13.98;12.02;;;;;;;28.52;48.27;100429.56;3584158;40;20088;-46
2021/06/29 07:16:03;;;;;;;11.88;10.80;;;;;;;28.55;48.83;100432.06;3583393;40;22123;-49
2021/06/29 07:18:31;;;;;;;13.32;10.75;;;;;;;28.71;48.70;100425.06;3583469;40;20143;-47
2021/06/29 07:20:58;;;;;;;13.25;10.80;;;;;;;29.14;48.29;100431.47;3583618;40;20348;-48
2021/06/29 07:23:25;;;;;;;14.65;11.60;;;;;;;29.30;47.79;100428.81;3583220;40;20118;-47
2021/06/29 07:25:52;;;;;;;14.40;10.82;;;;;;;29.70;45.17;100421.28;3583462;40;20073;-47
2021/06/29 07:28:19;;;;;;;13.02;11.82;;;;;;;29.48;44.40;100426.91;3583691;40;20601;-50
2021/06/29 07:30:46;;;;;;;12.23;10.98;;;;;;;29.47;45.50;100422.59;3583537;40;20101;-47
2021/06/29 07:33:14;;;;;;;10.25;9.40;;;;;;;29.66;43.58;100430.31;3583473;40;20087;-47
2021/06/29 07:35:41;;;;;;;11.00;9.95;;;;;;;29.77;44.14;100429.72;3583798;40;20108;-47
2021/06/29 07:38:08;;;;;;;11.05;9.95;;;;;;;29.81;42.21;100433.84;3584939;40;20109;-46
2021/06/29 07:40:35;;;;;;;10.52;9.60;;;;;;;29.56;42.49;100430.00;3588037;40;20349;-52
2021/06/29 07:43:03;;;;;;;11.05;9.68;;;;;;;30.02;42.26;100424.69;3585862;40;20378;-52
2021/06/29 07:45:31;;;;;;;10.80;9.90;;;;;;;30.45;41.67;100427.38;3582812;40;20096;-48
2021/06/29 07:48:01;;;;;;;10.77;9.77;;;;;;;30.33;41.94;100415.78;3582806;40;20426;-48
2021/06/29 07:50:32;;;;;;;11.45;10.13;;;;;;;30.62;41.79;100415.78;3582967;40;20048;-49
2021/06/29 07:53:01;;;;;;;11.07;9.85;;;;;;;30.97;40.68;100410.97;3582714;40;20182;-49
2021/06/29 07:55:30;;;;;;;10.98;10.02;;;;;;;31.54;40.03;100413.41;3582966;40;20086;-47
2021/06/29 07:57:57;;;;;;;11.20;10.10;;;;;;;31.37;39.61;100419.81;3582741;40;20068;-47
2021/06/29 08:00:25;;;;;;;11.30;10.27;;;;;;;30.41;40.45;100402.97;3582894;40;20075;-49
2021/06/29 08:02:52;;;;;;;14.25;10.23;;;;;;;31.24;39.43;100404.81;3583345;40;20081;-47
2021/06/29 08:05:19;;;;;;;12.85;10.20;;;;;;;31.73;39.33;100404.25;3583516;40;20636;-46
2021/06/29 08:07:46;;;;;;;11.48;10.45;;;;;;;31.03;40.08;100402.63;3583119;40;20052;-46
2021/06/29 08:10:13;;;;;;;9.95;8.98;;;;;;;31.35;38.90;100399.72;3583411;40;20096;-51
2021/06/29 08:12:40;;;;;;;10.80;9.25;;;;;;;31.51;39.76;100402.19;3583528;40;20064;-47
2021/06/29 08:15:09;;;;;;;12.07;10.77;;;;;;;31.11;39.67;100404.78;3582876;40;20075;-48
2021/06/29 08:17:43;;;;;;;11.05;9.80;;;;;;;31.57;40.05;100394.69;3583262;40;20059;-52
2021/06/29 08:20:12;;;;;;;12.15;10.93;;;;;;;32.13;37.79;100405.06;3584723;40;20064;-50
2021/06/29 08:22:39;;;;;;;12.07;10.82;;;;;;;32.14;38.74;100401.47;3584890;40;20089;-48
2021/06/29 08:25:07;;;;;;;10.73;9.93;;;;;;;32.15;38.28;100400.50;3584831;40;20053;-48
2021/06/29 08:27:35;;;;;;;11.18;10.27;;;;;;;31.11;39.47;100396.84;3584716;40;20092;-47
2021/06/29 08:30:05;;;;;;;10.98;9.88;;;;;;;31.39;39.10;100393.28;3584678;40;20100;-50
2021/06/29 08:32:32;;;;;;;10.75;9.73;;;;;;;31.52;37.63;100402.06;3584734;40;20081;-49
2021/06/29 08:34:59;;;;;;;11.52;10.35;;;;;;;30.53;41.63;100397.84;3584420;40;20073;-49
2021/06/29 08:37:27;;;;;;;11.75;10.48;;;;;;;31.42;38.15;100403.63;3584438;40;20201;-49
2021/06/29 08:39:55;;;;;;;10.38;9.50;;;;;;;31.05;39.40;100402.50;3584579;40;20120;-47
2021/06/29 08:42:22;;;;;;;11.20;10.23;;;;;;;31.46;38.49;100399.84;3584282;40;20045;-46
2021/06/29 08:44:49;;;;;;;10.82;9.77;;;;;;;31.18;39.17;100390.19;3584470;40;20063;-49
2021/06/29 08:47:16;;;;;;;10.43;9.52;;;;;;;30.99;38.75;100395.81;3584506;40;20089;-47
2021/06/29 08:49:47;;;;;;;10.60;9.73;;;;;;;30.72;40.66;100397.56;3584183;40;20063;-46
2021/06/29 08:52:14;;;;;;;10.00;9.07;;;;;;;31.55;40.29;100390.44;3584428;40;20063;-50
2021/06/29 08:54:54;;;;;;;14.95;9.88;;;;;;;31.74;39.61;100404.13;3584322;40;20044;-52
2021/06/29 08:57:21;;;;;;;10.38;9.45;;;;;;;31.90;37.87;100390.75;3584353;40;20088;-49
2021/06/29 08:59:48;;;;;;;10.88;9.77;;;;;;;31.95;37.15;100391.28;3584656;40;20111;-50
2021/06/29 09:02:17;;;;;;;9.95;8.95;;;;;;;31.55;39.20;100383.34;3584499;40;20112;-52
2021/06/29 09:04:49;;;;;;;9.73;8.75;;;;;;;31.89;37.11;100381.97;3584319;40;20044;-49
2021/06/29 09:07:25;;;;;;;9.50;8.80;;;;;;;31.66;38.35;100377.31;3584339;40;20080;-51
2021/06/29 09:09:57;;;;;;;9.35;8.40;;;;;;;31.37;39.03;100380.13;3584647;40;20072;-49
2021/06/29 09:12:45;;;;;;;9.43;8.57;;;;;;;30.95;38.44;100378.44;3584844;40;20092;-49
2021/06/29 09:15:23;;;;;;;9.32;8.52;;;;;;;30.81;38.76;100370.56;3584473;40;20059;-47
2021/06/29 09:17:55;;;;;;;10.07;9.18;;;;;;;31.06;37.83;100378.63;3584018;40;20079;-49
2021/06/29 09:20:28;;;;;;;10.40;8.82;;;;;;;31.04;38.97;100382.31;3584206;40;20166;-48
2021/06/29 09:23:16;;;;;;;9.80;9.00;;;;;;;30.71;38.73;100370.28;3584300;40;20072;-45
2021/06/29 09:25:47;;;;;;;9.25;8.35;;;;;;;30.87;39.75;100383.38;3584361;40;20606;-45
2021/06/29 09:28:21;;;;;;;9.95;9.13;;;;;;;31.00;37.72;100381.63;3583877;40;20048;-47
2021/06/29 09:31:03;;;;;;;9.18;8.43;;;;;;;30.75;37.95;100379.72;3583866;40;20041;-46
2021/06/29 09:33:32;;;;;;;9.60;8.70;;;;;;;30.70;40.71;100376.50;3584310;40;20459;-47
2021/06/29 09:36:14;;;;;;;11.35;9.15;;;;;;;30.60;40.46;100383.28;3584180;40;20072;-46
2021/06/29 09:38:45;;;;;;;9.98;8.98;;;;;;;30.96;38.96;100385.44;3584075;40;20049;-47
2021/06/29 09:41:15;;;;;;;10.35;9.45;;;;;;;30.86;38.70;100371.94;3584242;40;20055;-48
2021/06/29 09:43:45;;;;;;;9.80;9.10;;;;;;;31.16;37.27;100376.22;3584375;40;20845;-47
2021/06/29 09:46:15;;;;;;;10.25;9.30;;;;;;;31.21;39.34;100376.78;3584491;40;20351;-47
2021/06/29 09:48:45;;;;;;;9.73;8.77;;;;;;;30.71;39.48;100372.94;3584342;40;20410;-49
2021/06/29 09:51:34;;;;;;;9.45;8.65;;;;;;;31.40;37.78;100376.44;3584274;40;20141;-49
2021/06/29 09:54:06;;;;;;;9.38;8.52;;;;;;;31.72;36.61;100368.13;3584294;40;20052;-51
2021/06/29 09:56:41;;;;;;;9.50;8.60;;;;;;;31.34;38.82;100359.16;3584393;40;20059;-47
2021/06/29 09:59:19;;;;;;;8.57;7.88;;;;;;;31.85;37.88;100366.38;3584164;40;20051;-49
2021/06/29 10:01:48;;;;;;;9.68;8.90;;;;;;;31.43;37.05;100358.56;3584167;40;20052;-52
2021/06/29 10:04:15;;;;;;;11.40;8.55;;;;;;;31.46;37.92;100354.84;3583950;40;20048;-52
2021/06/29 10:06:44;;;;;;;9.95;8.85;;;;;;;31.72;37.59;100358.38;3584391;40;20068;-48
2021/06/29 10:09:12;;;;;;;8.98;8.27;;;;;;;31.66;36.27;100361.44;3583974;40;20085;-47
2021/06/29 10:11:42;;;;;;;8.43;7.72;;;;;;;32.13;36.35;100357.38;3583986;40;20104;-48
2021/06/29 10:14:14;;;;;;;9.07;8.23;;;;;;;32.03;35.91;100351.00;3584153;40;20646;-50
2021/06/29 10:16:47;;;;;;;8.77;7.68;;;;;;;31.33;37.60;100351.31;3584013;40;20052;-48
2021/06/29 10:21:59;;;;;;;8.52;7.85;;;;;;;31.25;35.87;100356.25;3583788;40;20052;-45
2021/06/29 10:24:29;;;;;;;10.23;8.18;;;;;;;31.53;36.08;100358.78;3583666;40;20446;-48
2021/06/29 10:26:59;;;;;;;8.25;7.53;;;;;;;31.61;35.02;100353.81;3583712;40;20052;-50
2021/06/29 10:29:28;;;;;;;8.57;7.72;;;;;;;31.68;34.61;100355.09;3583606;40;20539;-48
2021/06/29 10:31:58;;;;;;;8.50;7.80;;;;;;;31.56;35.30;100347.13;3583647;40;20145;-54
2021/06/29 10:34:28;;;;;;;8.20;7.47;;;;;;;31.83;35.49;100352.38;3583721;40;20089;-48
2021/06/29 10:36:57;;;;;;;7.47;6.88;;;;;;;31.53;34.60;100353.50;3583794;40;20646;-49
2021/06/29 10:39:30;;;;;;;7.45;6.85;;;;;;;31.43;34.54;100339.16;3583642;40;20040;-49
2021/06/29 10:42:02;;;;;;;7.75;7.13;;;;;;;31.43;34.95;100352.38;3583278;40;20096;-47
2021/06/29 10:44:35;;;;;;;7.43;6.82;;;;;;;31.30;34.38;100343.59;3583709;40;20338;-48
2021/06/29 10:47:17;;;;;;;7.25;6.75;;;;;;;31.27;34.33;100347.28;3583802;40;20052;-51
2021/06/29 10:49:50;;;;;;;7.50;6.82;;;;;;;31.01;36.42;100333.06;3583888;40;20084;-51
2021/06/29 10:52:23;;;;;;;8.60;7.38;;;;;;;31.27;35.29;100333.16;3583772;40;20076;-49
2021/06/29 10:54:55;;;;;;;8.38;7.53;;;;;;;31.59;35.74;100333.69;3583497;40;20422;-48
2021/06/29 10:57:37;;;;;;;8.55;7.85;;;;;;;31.62;35.26;100339.63;3583737;40;20060;-46
2021/06/29 11:00:22;;;;;;;8.25;7.50;;;;;;;31.51;35.71;100336.84;3583569;40;20060;-46
2021/06/29 11:03:06;;;;;;;9.85;8.38;;;;;;;31.83;35.96;100336.50;3583759;40;20462;-51
2021/06/29 11:05:42;;;;;;;13.85;11.63;;;;;;;32.59;37.57;100338.25;3583641;40;20061;-51
2021/06/29 11:08:19;;;;;;;13.25;12.02;;;;;;;32.96;37.76;100339.09;3583632;40;20084;-47
2021/06/29 11:10:49;;;;;;;14.88;13.35;;;;;;;32.81;39.17;100335.72;3583449;40;20060;-49
2021/06/29 11:13:18;;;;;;;17.48;14.50;;;;;;;33.52;39.06;100338.50;3583831;40;20080;-52
2021/06/29 11:15:52;;;;;;;16.95;15.45;;;;;;;32.95;39.92;100332.06;3583633;40;20052;-50
2021/06/29 11:18:38;;;;;;;17.60;15.85;;;;;;;32.79;40.79;100331.50;3583592;40;20060;-52
2021/06/29 11:21:06;;;;;;;;;;;;;;;33.06;38.12;100328.66;3584253;40;20079;-51
2021/06/29 11:23:34;;;;;;;15.05;13.63;;;;;;;33.52;39.22;100322.56;3583479;40;19932;-54
2021/06/29 11:26:13;;;;;;;14.88;13.55;;;;;;;33.63;39.66;100318.09;3583652;40;20067;-50
2021/06/29 11:29:10;;;;;;;16.70;15.00;;;;;;;32.94;39.03;100317.13;3583355;40;20392;-50
2021/06/29 11:31:37;;;;;;;16.33;14.98;;;;;;;33.57;38.54;100315.94;3583570;40;20639;-53
2021/06/29 11:34:07;;;;;;;20.23;15.27;;;;;;;33.32;39.29;100314.25;3582315;40;20052;-47
2021/06/29 11:36:36;;;;;;;17.48;15.52;;;;;;;34.07;38.35;100316.50;3583329;40;20068;-53